Baltimore/Inner Harbor, Maryland
Current Conditions -  °F | °C
As of 5:54 PM on Wednesday 17 Dec 2014 (Local Time) from KBWI Reporting Station
Few Clouds Few Clouds  
Wind Chill:   Ceiling: Unl
Heat Index:   Visibility: 10mi
Dew Point: -3°   Wind: 10mph
Humidity: 53%   Direction: 300°WNW
Pressure: 29.99"   Gusts: NA
Location:  39.28°N, 76.62°W
Report Text: KBWI 172254Z 30009KT 10SM FEW070 06/M03 A2999 RMK AO2 SLP156 T00611028
Loading
Personal Weather Stations






























Interactive Weather Map New forecast layout! Learn more

10-Day Weather Forecast

Advertisements
Track Severe Weather on mobile